B32MU CYVR-RJAA
Flight info
| Callsign | B32MU |
|---|---|
| Flight time | N/A |
| Altitude | 31000 |
| Route | IKNOS DCT ORNAI DCT 52N140W 54N150W 56N160W DCT SRI DCT POOFF DCT ONEIL DCT HEDMI M523 IGPAK M523 IPGUD Y802 OLDIV Y809 SUPOK |
| Aircraft | A339/H-SDE2E3GHIJ1J3J4J5LM1ORWXYZ/LB2D1 |
Departure
| Time | 2026-05-06 04:31 |
|---|---|
| Airport | Vancouver International Airport (CYVR) |
Arrival
| Time | N/A |
|---|---|
| Airport | Narita International Airport (RJAA) |
| Time | Latitude | Longitude | Altitude | Speed | Heading |
|---|---|---|---|---|---|
| 2026-05-06 03:53 | 49.19826 | -123.17777 | 24 ft | 0 kts | 211° |
| 2026-05-06 04:13 | 49.19827 | -123.17776 | 24 ft | 1 kts | 211° |
| 2026-05-06 04:13 | 49.19839 | -123.17765 | 24 ft | 2 kts | 211° |
| 2026-05-06 04:14 | 49.19852 | -123.17754 | 24 ft | 2 kts | 211° |
| 2026-05-06 04:14 | 49.19864 | -123.17743 | 24 ft | 2 kts | 211° |
| 2026-05-06 04:14 | 49.19876 | -123.17732 | 24 ft | 2 kts | 211° |
| 2026-05-06 04:14 | 49.19889 | -123.17720 | 24 ft | 2 kts | 211° |
| 2026-05-06 04:15 | 49.19901 | -123.17708 | 24 ft | 2 kts | 224° |
| 2026-05-06 04:15 | 49.19910 | -123.17690 | 24 ft | 2 kts | 238° |
| 2026-05-06 04:15 | 49.19917 | -123.17670 | 24 ft | 2 kts | 250° |
| 2026-05-06 04:15 | 49.19921 | -123.17649 | 24 ft | 2 kts | 263° |
| 2026-05-06 04:16 | 49.19922 | -123.17633 | 24 ft | 2 kts | 272° |
| 2026-05-06 04:16 | 49.19922 | -123.17622 | 24 ft | 0 kts | 279° |
| 2026-05-06 04:16 | 49.19921 | -123.17615 | 24 ft | 0 kts | 280° |
| 2026-05-06 04:20 | 49.19922 | -123.17625 | 24 ft | 4 kts | 280° |
| 2026-05-06 04:20 | 49.19933 | -123.17724 | 24 ft | 14 kts | 280° |
| 2026-05-06 04:20 | 49.19957 | -123.17830 | 24 ft | 10 kts | 313° |
| 2026-05-06 04:21 | 49.20013 | -123.17842 | 24 ft | 3 kts | 355° |
| 2026-05-06 04:21 | 49.20030 | -123.17857 | 24 ft | 3 kts | 322° |
| 2026-05-06 04:21 | 49.20044 | -123.17891 | 25 ft | 5 kts | 294° |
| 2026-05-06 04:21 | 49.20058 | -123.17968 | 26 ft | 8 kts | 278° |
| 2026-05-06 04:22 | 49.20071 | -123.18063 | 27 ft | 12 kts | 285° |
| 2026-05-06 04:22 | 49.20094 | -123.18237 | 25 ft | 18 kts | 281° |
| 2026-05-06 04:22 | 49.20118 | -123.18433 | 26 ft | 18 kts | 281° |
| 2026-05-06 04:23 | 49.20158 | -123.18813 | 27 ft | 17 kts | 281° |
| 2026-05-06 04:23 | 49.20171 | -123.18953 | 27 ft | 8 kts | 259° |
| 2026-05-06 04:23 | 49.20123 | -123.19014 | 26 ft | 9 kts | 194° |
| 2026-05-06 04:23 | 49.20078 | -123.19040 | 25 ft | 10 kts | 201° |
| 2026-05-06 04:24 | 49.19981 | -123.19074 | 24 ft | 12 kts | 189° |
| 2026-05-06 04:24 | 49.19890 | -123.19096 | 24 ft | 14 kts | 189° |
| 2026-05-06 04:24 | 49.19786 | -123.19110 | 24 ft | 15 kts | 188° |
| 2026-05-06 04:24 | 49.19672 | -123.19150 | 24 ft | 19 kts | 194° |
| 2026-05-06 04:25 | 49.19525 | -123.19196 | 24 ft | 23 kts | 189° |
| 2026-05-06 04:25 | 49.19373 | -123.19236 | 24 ft | 14 kts | 191° |
| 2026-05-06 04:25 | 49.19326 | -123.19312 | 24 ft | 10 kts | 254° |
| 2026-05-06 04:25 | 49.19309 | -123.19421 | 24 ft | 11 kts | 259° |
| 2026-05-06 04:26 | 49.19291 | -123.19553 | 24 ft | 13 kts | 259° |
| 2026-05-06 04:26 | 49.19271 | -123.19707 | 25 ft | 15 kts | 259° |
| 2026-05-06 04:26 | 49.19251 | -123.19868 | 27 ft | 15 kts | 259° |
| 2026-05-06 04:26 | 49.19231 | -123.20033 | 29 ft | 15 kts | 260° |
| 2026-05-06 04:27 | 49.19211 | -123.20210 | 30 ft | 18 kts | 260° |
| 2026-05-06 04:27 | 49.19189 | -123.20378 | 30 ft | 12 kts | 251° |
| 2026-05-06 04:27 | 49.19148 | -123.20422 | 30 ft | 7 kts | 193° |
| 2026-05-06 04:27 | 49.19089 | -123.20440 | 30 ft | 10 kts | 189° |
| 2026-05-06 04:28 | 49.19051 | -123.20450 | 30 ft | 12 kts | 189° |
| 2026-05-06 04:28 | 49.19046 | -123.20451 | 30 ft | 12 kts | 189° |
| 2026-05-06 04:28 | 49.18967 | -123.20413 | 30 ft | 8 kts | 115° |
| 2026-05-06 04:28 | 49.18966 | -123.20398 | 30 ft | 0 kts | 73° |
| 2026-05-06 04:29 | 49.18966 | -123.20371 | 30 ft | 9 kts | 103° |
| 2026-05-06 04:29 | 49.18956 | -123.20264 | 30 ft | 3 kts | 103° |
| 2026-05-06 04:29 | 49.18955 | -123.20262 | 30 ft | 0 kts | 103° |
| 2026-05-06 04:29 | 49.18955 | -123.20261 | 30 ft | 3 kts | 103° |
| 2026-05-06 04:30 | 49.18936 | -123.20103 | 29 ft | 34 kts | 99° |
| 2026-05-06 04:30 | 49.18853 | -123.19405 | 24 ft | 98 kts | 100° |
| 2026-05-06 04:30 | 49.18704 | -123.18089 | 27 ft | 151 kts | 100° |
| 2026-05-06 04:30 | 49.18502 | -123.16378 | 451 ft | 163 kts | 100° |
| 2026-05-06 04:31 | 49.18320 | -123.14757 | 1107 ft | 158 kts | 100° |
| 2026-05-06 04:31 | 49.18038 | -123.13096 | 1571 ft | 167 kts | 111° |
| 2026-05-06 04:31 | 49.17591 | -123.11442 | 2101 ft | 171 kts | 113° |
| 2026-05-06 04:31 | 49.17126 | -123.09817 | 2567 ft | 172 kts | 114° |
| 2026-05-06 04:32 | 49.16635 | -123.08148 | 2889 ft | 177 kts | 114° |
| 2026-05-06 04:32 | 49.16126 | -123.06780 | 3159 ft | 181 kts | 137° |
| 2026-05-06 04:32 | 49.13715 | -123.07272 | 3629 ft | 193 kts | 243° |
| 2026-05-06 04:33 | 49.13425 | -123.08574 | 3781 ft | 197 kts | 270° |
| 2026-05-06 04:33 | 49.13735 | -123.10644 | 4041 ft | 206 kts | 293° |
| 2026-05-06 04:33 | 49.14270 | -123.12741 | 4314 ft | 219 kts | 291° |
| 2026-05-06 04:33 | 49.14985 | -123.15775 | 4676 ft | 239 kts | 290° |
| 2026-05-06 04:34 | 49.15547 | -123.18239 | 4955 ft | 253 kts | 290° |
| 2026-05-06 04:34 | 49.15932 | -123.19949 | 5198 ft | 261 kts | 290° |
| 2026-05-06 04:34 | 49.16523 | -123.22594 | 5751 ft | 264 kts | 290° |
| 2026-05-06 04:34 | 49.17116 | -123.25265 | 6361 ft | 265 kts | 290° |
| 2026-05-06 04:35 | 49.17687 | -123.27848 | 6924 ft | 266 kts | 290° |
| 2026-05-06 04:35 | 49.18272 | -123.30499 | 7460 ft | 268 kts | 290° |
| 2026-05-06 04:35 | 49.18853 | -123.33131 | 7965 ft | 272 kts | 290° |
| 2026-05-06 04:35 | 49.19633 | -123.36673 | 8650 ft | 275 kts | 290° |
| 2026-05-06 04:36 | 49.20041 | -123.38527 | 9001 ft | 276 kts | 290° |
| 2026-05-06 04:36 | 49.20644 | -123.41277 | 9517 ft | 279 kts | 291° |
| 2026-05-06 04:36 | 49.21256 | -123.44066 | 10032 ft | 281 kts | 291° |
| 2026-05-06 04:36 | 49.21878 | -123.46903 | 10407 ft | 289 kts | 290° |
| 2026-05-06 04:37 | 49.22412 | -123.49334 | 10596 ft | 299 kts | 290° |
| 2026-05-06 04:37 | 49.23077 | -123.52367 | 10818 ft | 312 kts | 290° |
| 2026-05-06 04:37 | 49.23546 | -123.54514 | 10988 ft | 321 kts | 290° |
| 2026-05-06 04:37 | 49.24260 | -123.57791 | 11205 ft | 334 kts | 290° |
| 2026-05-06 04:38 | 49.24748 | -123.60035 | 11323 ft | 342 kts | 290° |
| 2026-05-06 04:38 | 49.25761 | -123.64699 | 11633 ft | 358 kts | 290° |
| 2026-05-06 04:38 | 49.26556 | -123.68366 | 11990 ft | 366 kts | 289° |
| 2026-05-06 04:38 | 49.27077 | -123.70779 | 12348 ft | 367 kts | 289° |
| 2026-05-06 04:39 | 49.27867 | -123.74437 | 12915 ft | 368 kts | 289° |
| 2026-05-06 04:39 | 49.28650 | -123.78068 | 13440 ft | 370 kts | 289° |
| 2026-05-06 04:39 | 49.29728 | -123.83084 | 14161 ft | 373 kts | 289° |
| 2026-05-06 04:39 | 49.30529 | -123.86816 | 14694 ft | 375 kts | 289° |
| 2026-05-06 04:40 | 49.31344 | -123.90623 | 15205 ft | 378 kts | 289° |
| 2026-05-06 04:40 | 49.32164 | -123.94455 | 15712 ft | 380 kts | 288° |
| 2026-05-06 04:40 | 49.32713 | -123.97024 | 16049 ft | 382 kts | 288° |
| 2026-05-06 04:40 | 49.33537 | -124.00890 | 16542 ft | 385 kts | 288° |
| 2026-05-06 04:41 | 49.34640 | -124.06082 | 17227 ft | 388 kts | 288° |
| 2026-05-06 04:41 | 49.35200 | -124.08718 | 17579 ft | 389 kts | 288° |
| 2026-05-06 04:41 | 49.36032 | -124.12647 | 18052 ft | 391 kts | 288° |
| 2026-05-06 04:41 | 49.36864 | -124.16585 | 18542 ft | 393 kts | 288° |
| 2026-05-06 04:42 | 49.37995 | -124.21952 | 19183 ft | 397 kts | 288° |
| 2026-05-06 04:42 | 49.38552 | -124.24599 | 19475 ft | 399 kts | 288° |
| 2026-05-06 04:42 | 49.39399 | -124.28628 | 19939 ft | 401 kts | 288° |
| 2026-05-06 04:42 | 49.40255 | -124.32714 | 20373 ft | 403 kts | 288° |
| 2026-05-06 04:43 | 49.41399 | -124.38188 | 20943 ft | 406 kts | 288° |
| 2026-05-06 04:43 | 49.42263 | -124.42332 | 21344 ft | 409 kts | 288° |
| 2026-05-06 04:43 | 49.43119 | -124.46435 | 21738 ft | 411 kts | 288° |
| 2026-05-06 04:43 | 49.43679 | -124.49277 | 21999 ft | 413 kts | 286° |
| 2026-05-06 04:44 | 49.44587 | -124.54989 | 22506 ft | 416 kts | 282° |
| 2026-05-06 04:44 | 49.44934 | -124.57846 | 22732 ft | 417 kts | 280° |
| 2026-05-06 04:44 | 49.45393 | -124.62247 | 23079 ft | 420 kts | 279° |
| 2026-05-06 04:44 | 49.45991 | -124.68166 | 23541 ft | 423 kts | 278° |
| 2026-05-06 04:45 | 49.46290 | -124.71162 | 23775 ft | 424 kts | 278° |
| 2026-05-06 04:45 | 49.46738 | -124.75649 | 24116 ft | 426 kts | 278° |
| 2026-05-06 04:45 | 49.47184 | -124.80139 | 24450 ft | 428 kts | 278° |
| 2026-05-06 04:45 | 49.47633 | -124.84669 | 24775 ft | 430 kts | 278° |
| 2026-05-06 04:46 | 49.48228 | -124.90697 | 25207 ft | 433 kts | 278° |
| 2026-05-06 04:46 | 49.48680 | -124.95291 | 25534 ft | 434 kts | 278° |
| 2026-05-06 04:46 | 49.49126 | -124.99854 | 25827 ft | 437 kts | 278° |
| 2026-05-06 04:46 | 49.49576 | -125.04470 | 26121 ft | 439 kts | 278° |
| 2026-05-06 04:47 | 49.49877 | -125.07569 | 26312 ft | 440 kts | 278° |
| 2026-05-06 04:47 | 49.50476 | -125.13744 | 26682 ft | 443 kts | 278° |
| 2026-05-06 04:47 | 49.50924 | -125.18399 | 26969 ft | 444 kts | 278° |
| 2026-05-06 04:47 | 49.51375 | -125.23101 | 27244 ft | 446 kts | 278° |
| 2026-05-06 04:48 | 49.51825 | -125.27824 | 27511 ft | 448 kts | 278° |
| 2026-05-06 04:48 | 49.52274 | -125.32545 | 27781 ft | 449 kts | 278° |
| 2026-05-06 04:48 | 49.52575 | -125.35728 | 27975 ft | 450 kts | 278° |
| 2026-05-06 04:48 | 49.53169 | -125.42028 | 28463 ft | 448 kts | 278° |
| 2026-05-06 04:49 | 49.53613 | -125.46776 | 28834 ft | 447 kts | 278° |
| 2026-05-06 04:49 | 49.54048 | -125.51440 | 29200 ft | 446 kts | 278° |
| 2026-05-06 04:49 | 49.54488 | -125.56175 | 29540 ft | 445 kts | 278° |
| 2026-05-06 04:49 | 49.54924 | -125.60902 | 29800 ft | 446 kts | 278° |
| 2026-05-06 04:50 | 49.55354 | -125.65578 | 30024 ft | 447 kts | 277° |
| 2026-05-06 04:50 | 49.55787 | -125.70298 | 30256 ft | 448 kts | 277° |
| 2026-05-06 04:50 | 49.56226 | -125.75103 | 30499 ft | 449 kts | 277° |
| 2026-05-06 04:50 | 49.56658 | -125.79862 | 30736 ft | 450 kts | 277° |
| 2026-05-06 04:51 | 49.57086 | -125.84596 | 30969 ft | 451 kts | 277° |
| 2026-05-06 04:51 | 49.57802 | -125.92570 | 31015 ft | 452 kts | 277° |
| 2026-05-06 04:52 | 49.58653 | -126.02125 | 31023 ft | 453 kts | 277° |
| 2026-05-06 04:52 | 49.59494 | -126.11673 | 31027 ft | 452 kts | 277° |
| 2026-05-06 04:53 | 49.60326 | -126.21224 | 31031 ft | 451 kts | 277° |
| 2026-05-06 04:53 | 49.61288 | -126.32370 | 31036 ft | 451 kts | 277° |
| 2026-05-06 04:54 | 49.62103 | -126.41902 | 31033 ft | 450 kts | 277° |
| 2026-05-06 04:54 | 49.62780 | -126.49900 | 31034 ft | 451 kts | 276° |
| 2026-05-06 04:55 | 49.63714 | -126.61033 | 31039 ft | 451 kts | 276° |
| 2026-05-06 04:55 | 49.64373 | -126.68993 | 31043 ft | 451 kts | 276° |
| 2026-05-06 04:56 | 49.65158 | -126.78561 | 31045 ft | 451 kts | 276° |
| 2026-05-06 04:56 | 49.65934 | -126.88089 | 31048 ft | 450 kts | 275° |
| 2026-05-06 04:57 | 49.66829 | -126.99231 | 31059 ft | 450 kts | 275° |
| 2026-05-06 04:57 | 49.67459 | -127.07152 | 31064 ft | 450 kts | 275° |
| 2026-05-06 04:58 | 49.68214 | -127.16736 | 31066 ft | 451 kts | 275° |
| 2026-05-06 04:58 | 49.68958 | -127.26283 | 31070 ft | 450 kts | 275° |
| 2026-05-06 04:59 | 49.69817 | -127.37434 | 31072 ft | 451 kts | 275° |
| 2026-05-06 04:59 | 49.70546 | -127.47027 | 31073 ft | 450 kts | 275° |
| 2026-05-06 05:00 | 49.71147 | -127.55002 | 31076 ft | 451 kts | 275° |
| 2026-05-06 05:00 | 49.71978 | -127.66172 | 31077 ft | 451 kts | 274° |
| 2026-05-06 05:01 | 49.72686 | -127.75784 | 31081 ft | 450 kts | 274° |
| 2026-05-06 05:01 | 49.73381 | -127.85358 | 31082 ft | 450 kts | 274° |
| 2026-05-06 05:02 | 49.74064 | -127.94873 | 31083 ft | 450 kts | 274° |
| 2026-05-06 05:02 | 49.74746 | -128.04466 | 31086 ft | 450 kts | 274° |
| 2026-05-06 05:03 | 49.75420 | -128.14061 | 31091 ft | 450 kts | 274° |
| 2026-05-06 05:03 | 49.76086 | -128.23668 | 31096 ft | 450 kts | 274° |
| 2026-05-06 05:04 | 49.76739 | -128.33205 | 31098 ft | 449 kts | 273° |
| 2026-05-06 05:04 | 49.77388 | -128.42821 | 31102 ft | 450 kts | 273° |
| 2026-05-06 05:05 | 49.78028 | -128.52399 | 31107 ft | 449 kts | 273° |
| 2026-05-06 05:05 | 49.78659 | -128.61952 | 31112 ft | 449 kts | 273° |
| 2026-05-06 05:06 | 49.79283 | -128.71580 | 31115 ft | 449 kts | 272° |
| 2026-05-06 05:06 | 49.79796 | -128.79533 | 31118 ft | 449 kts | 272° |
| 2026-05-06 05:07 | 49.80506 | -128.90694 | 31124 ft | 448 kts | 272° |
| 2026-05-06 05:07 | 49.81104 | -129.00266 | 31125 ft | 449 kts | 272° |
| 2026-05-06 05:08 | 49.81697 | -129.09866 | 31129 ft | 448 kts | 272° |
| 2026-05-06 05:08 | 49.82277 | -129.19394 | 31132 ft | 449 kts | 272° |
| 2026-05-06 05:09 | 49.82852 | -129.28969 | 31135 ft | 449 kts | 272° |
| 2026-05-06 05:09 | 49.83422 | -129.38592 | 31136 ft | 449 kts | 272° |
| 2026-05-06 05:10 | 49.83982 | -129.48166 | 31140 ft | 448 kts | 272° |
| 2026-05-06 05:10 | 49.84533 | -129.57754 | 31141 ft | 449 kts | 272° |
| 2026-05-06 05:11 | 49.85078 | -129.67366 | 31142 ft | 449 kts | 271° |
| 2026-05-06 05:11 | 49.85611 | -129.76912 | 31147 ft | 449 kts | 271° |
| 2026-05-06 05:12 | 49.86139 | -129.86484 | 31146 ft | 449 kts | 271° |
| 2026-05-06 05:12 | 49.86661 | -129.96126 | 31147 ft | 449 kts | 271° |
| 2026-05-06 05:13 | 49.87173 | -130.05713 | 31157 ft | 449 kts | 271° |
| 2026-05-06 05:13 | 49.87678 | -130.15343 | 31154 ft | 448 kts | 270° |
| 2026-05-06 05:14 | 49.88172 | -130.24898 | 31158 ft | 449 kts | 271° |
| 2026-05-06 05:14 | 49.88662 | -130.34521 | 31162 ft | 449 kts | 270° |
| 2026-05-06 05:15 | 49.89142 | -130.44124 | 31166 ft | 449 kts | 270° |
| 2026-05-06 05:15 | 49.89616 | -130.53777 | 31170 ft | 449 kts | 270° |
| 2026-05-06 05:16 | 49.90081 | -130.63411 | 31172 ft | 450 kts | 270° |
| 2026-05-06 05:16 | 49.90539 | -130.73045 | 31178 ft | 450 kts | 270° |
| 2026-05-06 05:17 | 49.90987 | -130.82646 | 31180 ft | 451 kts | 270° |
| 2026-05-06 05:17 | 49.91358 | -130.90709 | 31182 ft | 451 kts | 270° |
| 2026-05-06 05:18 | 49.91869 | -131.02026 | 31192 ft | 451 kts | 270° |
| 2026-05-06 05:18 | 49.92294 | -131.11649 | 31193 ft | 451 kts | 270° |
| 2026-05-06 05:19 | 49.92717 | -131.21359 | 31197 ft | 451 kts | 269° |
| 2026-05-06 05:19 | 49.93127 | -131.31052 | 31201 ft | 451 kts | 269° |
| 2026-05-06 05:20 | 49.93530 | -131.40717 | 31205 ft | 451 kts | 269° |
| 2026-05-06 05:20 | 49.93925 | -131.50404 | 31211 ft | 452 kts | 269° |
| 2026-05-06 05:21 | 49.94310 | -131.60101 | 31209 ft | 452 kts | 269° |
| 2026-05-06 05:21 | 49.94689 | -131.69751 | 31215 ft | 452 kts | 268° |
| 2026-05-06 05:22 | 49.95063 | -131.79503 | 31219 ft | 453 kts | 268° |
| 2026-05-06 05:22 | 49.95427 | -131.89253 | 31226 ft | 453 kts | 268° |
| 2026-05-06 05:23 | 49.95782 | -131.98988 | 31227 ft | 455 kts | 268° |
| 2026-05-06 05:23 | 49.96303 | -132.13620 | 31238 ft | 453 kts | 268° |
| 2026-05-06 05:24 | 49.96637 | -132.23340 | 31247 ft | 454 kts | 268° |
| 2026-05-06 05:24 | 49.96965 | -132.33095 | 31237 ft | 454 kts | 268° |
| 2026-05-06 05:25 | 49.97284 | -132.42839 | 31240 ft | 454 kts | 267° |
| 2026-05-06 05:25 | 49.97597 | -132.52626 | 31251 ft | 454 kts | 268° |
| 2026-05-06 05:26 | 49.97900 | -132.62386 | 31243 ft | 455 kts | 268° |
| 2026-05-06 05:26 | 49.98195 | -132.72185 | 31250 ft | 456 kts | 266° |
| 2026-05-06 05:27 | 49.98484 | -132.82001 | 31249 ft | 456 kts | 267° |
| 2026-05-06 05:27 | 49.98765 | -132.91843 | 31259 ft | 458 kts | 266° |
| 2026-05-06 05:28 | 49.99034 | -133.01646 | 31256 ft | 458 kts | 267° |
| 2026-05-06 05:28 | 49.99297 | -133.11455 | 31253 ft | 458 kts | 267° |
| 2026-05-06 05:29 | 49.99551 | -133.21358 | 31258 ft | 457 kts | 267° |
| 2026-05-06 05:29 | 49.99930 | -133.31177 | 31263 ft | 460 kts | 272° |
| 2026-05-06 05:30 | 50.01245 | -133.40915 | 31264 ft | 468 kts | 281° |
| 2026-05-06 05:30 | 50.03653 | -133.50368 | 31269 ft | 476 kts | 291° |
| 2026-05-06 05:31 | 50.06718 | -133.59415 | 31276 ft | 477 kts | 293° |
| 2026-05-06 05:31 | 50.09864 | -133.68536 | 31283 ft | 476 kts | 292° |
| 2026-05-06 05:32 | 50.12955 | -133.77562 | 31283 ft | 475 kts | 292° |
| 2026-05-06 05:32 | 50.16050 | -133.86662 | 31286 ft | 476 kts | 292° |
| 2026-05-06 05:33 | 50.19111 | -133.95705 | 31291 ft | 475 kts | 292° |
| 2026-05-06 05:33 | 50.22185 | -134.04820 | 31291 ft | 475 kts | 292° |
| 2026-05-06 05:34 | 50.25241 | -134.13911 | 31293 ft | 474 kts | 292° |
| 2026-05-06 05:34 | 50.28296 | -134.23030 | 31293 ft | 473 kts | 292° |
| 2026-05-06 05:35 | 50.31322 | -134.32108 | 31294 ft | 473 kts | 292° |
| 2026-05-06 05:35 | 50.34349 | -134.41217 | 31295 ft | 474 kts | 292° |
| 2026-05-06 05:36 | 50.36865 | -134.48810 | 31296 ft | 474 kts | 292° |
| 2026-05-06 05:36 | 50.40381 | -134.59464 | 31294 ft | 474 kts | 292° |
| 2026-05-06 05:37 | 50.43398 | -134.68643 | 31298 ft | 474 kts | 292° |
| 2026-05-06 05:37 | 50.46390 | -134.77776 | 31297 ft | 474 kts | 292° |
| 2026-05-06 05:38 | 50.49383 | -134.86949 | 31300 ft | 474 kts | 292° |
| 2026-05-06 05:38 | 50.52378 | -134.96156 | 31298 ft | 474 kts | 292° |
| 2026-05-06 05:39 | 50.55363 | -135.05370 | 31309 ft | 474 kts | 292° |
| 2026-05-06 05:39 | 50.58313 | -135.14510 | 31305 ft | 473 kts | 292° |
| 2026-05-06 05:40 | 50.61288 | -135.23753 | 31306 ft | 473 kts | 292° |
| 2026-05-06 05:40 | 50.64240 | -135.32973 | 31310 ft | 473 kts | 292° |
| 2026-05-06 05:41 | 50.67179 | -135.42184 | 31306 ft | 472 kts | 292° |
| 2026-05-06 05:41 | 50.70103 | -135.51379 | 31313 ft | 472 kts | 292° |
| 2026-05-06 05:42 | 50.73035 | -135.60637 | 31311 ft | 472 kts | 293° |
| 2026-05-06 05:42 | 50.75954 | -135.69881 | 31314 ft | 471 kts | 292° |
| 2026-05-06 05:43 | 50.78850 | -135.79094 | 31313 ft | 471 kts | 292° |
| 2026-05-06 05:43 | 50.81740 | -135.88318 | 31311 ft | 471 kts | 292° |
| 2026-05-06 05:44 | 50.84633 | -135.97591 | 31308 ft | 471 kts | 292° |
| 2026-05-06 05:44 | 50.87510 | -136.06842 | 31304 ft | 470 kts | 292° |
| 2026-05-06 05:45 | 50.90374 | -136.16090 | 31302 ft | 469 kts | 292° |
| 2026-05-06 05:45 | 50.93223 | -136.25326 | 31296 ft | 470 kts | 292° |
| 2026-05-06 05:46 | 50.96085 | -136.34637 | 31300 ft | 470 kts | 292° |
| 2026-05-06 05:46 | 50.98919 | -136.43890 | 31301 ft | 470 kts | 292° |
| 2026-05-06 05:47 | 51.01748 | -136.53160 | 31302 ft | 470 kts | 292° |
| 2026-05-06 05:47 | 51.04582 | -136.62489 | 31300 ft | 470 kts | 292° |
| 2026-05-06 05:48 | 51.07413 | -136.71841 | 31302 ft | 470 kts | 291° |
| 2026-05-06 05:48 | 51.10212 | -136.81119 | 31304 ft | 469 kts | 292° |
| 2026-05-06 05:49 | 51.13025 | -136.90488 | 31305 ft | 468 kts | 292° |
| 2026-05-06 05:49 | 51.15810 | -136.99789 | 31306 ft | 468 kts | 292° |
| 2026-05-06 05:50 | 51.18587 | -137.09103 | 31308 ft | 468 kts | 291° |
| 2026-05-06 05:50 | 51.21373 | -137.18483 | 31309 ft | 468 kts | 291° |
| 2026-05-06 05:51 | 51.24138 | -137.27837 | 31314 ft | 468 kts | 292° |
| 2026-05-06 05:51 | 51.26900 | -137.37209 | 31308 ft | 468 kts | 292° |
| 2026-05-06 05:52 | 51.29656 | -137.46600 | 31312 ft | 468 kts | 292° |
| 2026-05-06 05:52 | 51.32385 | -137.55937 | 31310 ft | 468 kts | 292° |
| 2026-05-06 05:53 | 51.35133 | -137.65373 | 31311 ft | 468 kts | 291° |
| 2026-05-06 05:53 | 51.37857 | -137.74764 | 31310 ft | 468 kts | 291° |
| 2026-05-06 05:54 | 51.40580 | -137.84189 | 31310 ft | 467 kts | 291° |
| 2026-05-06 05:54 | 51.43298 | -137.93631 | 31309 ft | 467 kts | 291° |
| 2026-05-06 05:55 | 51.45983 | -138.03001 | 31310 ft | 466 kts | 291° |
| 2026-05-06 05:55 | 51.48674 | -138.12430 | 31304 ft | 466 kts | 291° |
| 2026-05-06 05:56 | 51.51356 | -138.21861 | 31306 ft | 466 kts | 291° |
| 2026-05-06 05:56 | 51.54055 | -138.31395 | 31309 ft | 466 kts | 291° |
| 2026-05-06 05:57 | 51.56715 | -138.40820 | 31313 ft | 466 kts | 291° |
| 2026-05-06 05:57 | 51.59370 | -138.50269 | 31315 ft | 466 kts | 291° |
| 2026-05-06 05:58 | 51.62019 | -138.59732 | 31317 ft | 465 kts | 291° |
| 2026-05-06 05:58 | 51.64652 | -138.69183 | 31319 ft | 464 kts | 290° |
| 2026-05-06 05:59 | 51.67272 | -138.78626 | 31320 ft | 463 kts | 290° |
| 2026-05-06 05:59 | 51.69881 | -138.88068 | 31320 ft | 463 kts | 290° |
| 2026-05-06 06:00 | 51.72493 | -138.97557 | 31318 ft | 464 kts | 290° |
| 2026-05-06 06:00 | 51.75078 | -139.06987 | 31319 ft | 464 kts | 290° |
| 2026-05-06 06:01 | 51.77678 | -139.16509 | 31319 ft | 463 kts | 290° |
| 2026-05-06 06:01 | 51.80268 | -139.26039 | 31317 ft | 464 kts | 290° |
| 2026-05-06 06:02 | 51.82847 | -139.35556 | 31319 ft | 463 kts | 290° |
| 2026-05-06 06:02 | 51.85401 | -139.45024 | 31317 ft | 463 kts | 290° |
| 2026-05-06 06:03 | 51.87958 | -139.54549 | 31313 ft | 462 kts | 290° |
| 2026-05-06 06:03 | 51.90517 | -139.64121 | 31315 ft | 462 kts | 289° |
| 2026-05-06 06:04 | 51.93048 | -139.73634 | 31316 ft | 462 kts | 289° |
| 2026-05-06 06:04 | 51.95570 | -139.83150 | 31314 ft | 462 kts | 289° |
| 2026-05-06 06:05 | 51.98095 | -139.92722 | 31314 ft | 462 kts | 289° |
| 2026-05-06 06:05 | 52.00597 | -140.02267 | 31314 ft | 462 kts | 288° |
| 2026-05-06 06:06 | 52.03021 | -140.11844 | 31318 ft | 461 kts | 288° |
| 2026-05-06 06:06 | 52.05427 | -140.21452 | 31314 ft | 461 kts | 288° |
| 2026-05-06 06:07 | 52.07823 | -140.31047 | 31297 ft | 461 kts | 288° |
| 2026-05-06 06:07 | 52.10219 | -140.40685 | 31296 ft | 460 kts | 288° |
| 2026-05-06 06:08 | 52.12601 | -140.50293 | 31292 ft | 459 kts | 288° |
| 2026-05-06 06:08 | 52.14965 | -140.59871 | 31299 ft | 460 kts | 288° |
| 2026-05-06 06:09 | 52.17338 | -140.69530 | 31290 ft | 459 kts | 287° |
| 2026-05-06 06:09 | 52.19697 | -140.79179 | 31293 ft | 459 kts | 287° |
| 2026-05-06 06:10 | 52.22037 | -140.88797 | 31292 ft | 459 kts | 287° |
| 2026-05-06 06:10 | 52.24362 | -140.98373 | 31291 ft | 458 kts | 287° |
| 2026-05-06 06:11 | 52.26692 | -141.08031 | 31289 ft | 458 kts | 287° |
| 2026-05-06 06:11 | 52.29016 | -141.17703 | 31282 ft | 458 kts | 287° |
| 2026-05-06 06:12 | 52.31319 | -141.27328 | 31280 ft | 457 kts | 287° |
| 2026-05-06 06:12 | 52.33617 | -141.36984 | 31282 ft | 456 kts | 287° |
| 2026-05-06 06:13 | 52.35905 | -141.46628 | 31283 ft | 456 kts | 287° |
| 2026-05-06 06:13 | 52.38168 | -141.56210 | 31279 ft | 456 kts | 287° |
| 2026-05-06 06:14 | 52.40442 | -141.65891 | 31284 ft | 456 kts | 286° |
| 2026-05-06 06:14 | 52.42705 | -141.75560 | 31280 ft | 455 kts | 286° |
| 2026-05-06 06:15 | 52.44957 | -141.85226 | 31283 ft | 455 kts | 286° |
| 2026-05-06 06:15 | 52.47190 | -141.94862 | 31269 ft | 455 kts | 286° |
| 2026-05-06 06:16 | 52.49422 | -142.04529 | 31268 ft | 455 kts | 286° |
| 2026-05-06 06:16 | 52.51637 | -142.14175 | 31269 ft | 454 kts | 286° |
| 2026-05-06 06:17 | 52.53856 | -142.23877 | 31263 ft | 454 kts | 286° |
| 2026-05-06 06:17 | 52.56062 | -142.33563 | 31264 ft | 454 kts | 287° |
| 2026-05-06 06:18 | 52.58260 | -142.43262 | 31266 ft | 454 kts | 286° |
| 2026-05-06 06:18 | 52.60450 | -142.52966 | 31263 ft | 455 kts | 286° |
| 2026-05-06 06:19 | 52.62629 | -142.62674 | 31258 ft | 454 kts | 286° |
| 2026-05-06 06:19 | 52.64793 | -142.72360 | 31266 ft | 454 kts | 285° |
| 2026-05-06 06:20 | 52.66964 | -142.82115 | 31266 ft | 454 kts | 285° |
| 2026-05-06 06:20 | 52.69106 | -142.91786 | 31259 ft | 453 kts | 285° |
| 2026-05-06 06:21 | 52.71252 | -143.01526 | 31267 ft | 453 kts | 285° |
| 2026-05-06 06:21 | 52.73392 | -143.11282 | 31267 ft | 453 kts | 285° |
| 2026-05-06 06:22 | 52.75519 | -143.21030 | 31260 ft | 453 kts | 285° |
| 2026-05-06 06:22 | 52.77634 | -143.30760 | 31253 ft | 453 kts | 285° |
| 2026-05-06 06:23 | 52.79748 | -143.40533 | 31241 ft | 453 kts | 285° |
| 2026-05-06 06:23 | 52.81848 | -143.50288 | 31243 ft | 453 kts | 285° |
| 2026-05-06 06:24 | 52.83944 | -143.60075 | 31251 ft | 453 kts | 285° |
| 2026-05-06 06:24 | 52.86032 | -143.69873 | 31250 ft | 452 kts | 284° |
| 2026-05-06 06:25 | 52.88103 | -143.79636 | 31256 ft | 452 kts | 284° |
| 2026-05-06 06:26 | 52.91187 | -143.94266 | 31253 ft | 453 kts | 284° |
| 2026-05-06 06:26 | 52.93248 | -144.04097 | 31251 ft | 453 kts | 285° |
| 2026-05-06 06:27 | 52.95295 | -144.13908 | 31261 ft | 452 kts | 284° |
| 2026-05-06 06:27 | 52.97341 | -144.23759 | 31256 ft | 453 kts | 284° |
| 2026-05-06 06:28 | 52.99377 | -144.33614 | 31246 ft | 452 kts | 284° |
| 2026-05-06 06:28 | 53.01390 | -144.43416 | 31249 ft | 451 kts | 284° |
| 2026-05-06 06:29 | 53.03392 | -144.53212 | 31241 ft | 450 kts | 284° |
| 2026-05-06 06:29 | 53.05395 | -144.63046 | 31246 ft | 450 kts | 284° |
| 2026-05-06 06:30 | 53.07382 | -144.72859 | 31251 ft | 449 kts | 284° |
| 2026-05-06 06:30 | 53.09353 | -144.82646 | 31236 ft | 449 kts | 284° |
| 2026-05-06 06:31 | 53.11330 | -144.92514 | 31236 ft | 450 kts | 284° |
| 2026-05-06 06:31 | 53.13289 | -145.02330 | 31229 ft | 450 kts | 284° |
| 2026-05-06 06:32 | 53.15243 | -145.12178 | 31218 ft | 450 kts | 284° |
| 2026-05-06 06:32 | 53.17196 | -145.22073 | 31230 ft | 449 kts | 284° |
| 2026-05-06 06:33 | 53.19125 | -145.31897 | 31215 ft | 449 kts | 284° |
| 2026-05-06 06:33 | 53.21057 | -145.41782 | 31224 ft | 449 kts | 284° |
| 2026-05-06 06:34 | 53.22973 | -145.51634 | 31217 ft | 448 kts | 284° |
| 2026-05-06 06:34 | 53.24872 | -145.61453 | 31220 ft | 449 kts | 284° |
| 2026-05-06 06:35 | 53.26787 | -145.71403 | 31227 ft | 448 kts | 283° |
| 2026-05-06 06:35 | 53.28672 | -145.81255 | 31215 ft | 448 kts | 283° |
| 2026-05-06 06:36 | 53.30561 | -145.91170 | 31214 ft | 449 kts | 283° |
| 2026-05-06 06:36 | 53.32428 | -146.01027 | 31217 ft | 449 kts | 283° |
| 2026-05-06 06:37 | 53.34305 | -146.10982 | 31224 ft | 449 kts | 283° |
| 2026-05-06 06:37 | 53.36160 | -146.20880 | 31220 ft | 448 kts | 283° |
| 2026-05-06 06:38 | 53.38000 | -146.30751 | 31209 ft | 447 kts | 283° |
| 2026-05-06 06:38 | 53.39843 | -146.40686 | 31200 ft | 447 kts | 283° |
| 2026-05-06 06:39 | 53.41677 | -146.50627 | 31212 ft | 447 kts | 283° |
| 2026-05-06 06:39 | 53.43483 | -146.60474 | 31195 ft | 446 kts | 284° |
| 2026-05-06 06:40 | 53.45300 | -146.70424 | 31196 ft | 446 kts | 283° |
| 2026-05-06 06:40 | 53.47091 | -146.80292 | 31197 ft | 445 kts | 283° |
| 2026-05-06 06:41 | 53.48886 | -146.90227 | 31189 ft | 445 kts | 283° |
| 2026-05-06 06:41 | 53.50656 | -147.00084 | 31189 ft | 444 kts | 283° |
| 2026-05-06 06:42 | 53.52430 | -147.10017 | 31181 ft | 443 kts | 283° |
| 2026-05-06 06:42 | 53.54184 | -147.19882 | 31181 ft | 443 kts | 283° |
| 2026-05-06 06:43 | 53.55931 | -147.29771 | 31176 ft | 442 kts | 283° |
| 2026-05-06 06:43 | 53.57671 | -147.39676 | 31174 ft | 442 kts | 283° |
| 2026-05-06 06:44 | 53.59391 | -147.49516 | 31172 ft | 442 kts | 283° |
| 2026-05-06 06:44 | 53.61114 | -147.59436 | 31169 ft | 442 kts | 283° |
| 2026-05-06 06:45 | 53.62828 | -147.69351 | 31158 ft | 441 kts | 282° |
| 2026-05-06 06:45 | 53.64527 | -147.79246 | 31174 ft | 441 kts | 282° |
| 2026-05-06 06:46 | 53.66215 | -147.89130 | 31157 ft | 440 kts | 282° |
| 2026-05-06 06:46 | 53.67895 | -147.99010 | 31157 ft | 440 kts | 282° |
| 2026-05-06 06:47 | 53.69562 | -148.08874 | 31157 ft | 441 kts | 282° |
| 2026-05-06 06:47 | 53.71231 | -148.18814 | 31149 ft | 441 kts | 282° |
| 2026-05-06 06:48 | 53.72893 | -148.28760 | 31145 ft | 440 kts | 282° |
| 2026-05-06 06:48 | 53.74534 | -148.38632 | 31154 ft | 439 kts | 282° |
| 2026-05-06 06:49 | 53.76172 | -148.48550 | 31140 ft | 438 kts | 282° |
| 2026-05-06 06:49 | 53.77795 | -148.58444 | 31136 ft | 438 kts | 282° |
| 2026-05-06 06:50 | 53.79400 | -148.68286 | 31147 ft | 437 kts | 281° |
| 2026-05-06 06:50 | 53.80998 | -148.78130 | 31140 ft | 436 kts | 281° |
| 2026-05-06 06:51 | 53.82592 | -148.88010 | 31143 ft | 436 kts | 281° |
| 2026-05-06 06:51 | 53.84173 | -148.97859 | 31139 ft | 434 kts | 281° |
| 2026-05-06 06:52 | 53.85741 | -149.07692 | 31135 ft | 433 kts | 281° |
| 2026-05-06 06:52 | 53.87304 | -149.17557 | 31136 ft | 434 kts | 281° |
| 2026-05-06 06:53 | 53.88853 | -149.27383 | 31136 ft | 434 kts | 281° |
| 2026-05-06 06:53 | 53.90403 | -149.37283 | 31127 ft | 434 kts | 281° |
| 2026-05-06 06:54 | 53.91936 | -149.47139 | 31128 ft | 433 kts | 281° |
| 2026-05-06 06:54 | 53.93436 | -149.56839 | 31129 ft | 433 kts | 281° |
| 2026-05-06 06:55 | 53.94955 | -149.66717 | 31124 ft | 433 kts | 280° |
| 2026-05-06 06:55 | 53.96457 | -149.76538 | 31120 ft | 433 kts | 280° |
| 2026-05-06 06:56 | 53.97958 | -149.86426 | 31114 ft | 432 kts | 279° |
| 2026-05-06 06:56 | 53.99513 | -149.96329 | 31108 ft | 435 kts | 282° |
| 2026-05-06 06:57 | 54.01534 | -150.05997 | 31103 ft | 439 kts | 287° |
| 2026-05-06 06:57 | 54.03926 | -150.15596 | 31102 ft | 440 kts | 288° |
| 2026-05-06 06:58 | 54.06319 | -150.25127 | 31098 ft | 440 kts | 288° |
| 2026-05-06 06:58 | 54.08703 | -150.34668 | 31094 ft | 440 kts | 288° |
| 2026-05-06 06:59 | 54.11077 | -150.44222 | 31095 ft | 438 kts | 288° |
| 2026-05-06 06:59 | 54.13429 | -150.53726 | 31093 ft | 439 kts | 288° |
| 2026-05-06 07:00 | 54.15788 | -150.63303 | 31089 ft | 439 kts | 288° |
| 2026-05-06 07:00 | 54.18128 | -150.72849 | 31089 ft | 438 kts | 287° |
| 2026-05-06 07:01 | 54.20465 | -150.82420 | 31087 ft | 438 kts | 287° |
| 2026-05-06 07:01 | 54.21630 | -150.87209 | 31086 ft | 439 kts | 287° |